sensor_id;sensor_type;location;lat;lon;timestamp;pressure;altitude;pressure_sealevel;temperature;humidity
44349;BME280;30068;50.986;4.564;2023-03-03T00:02:27;102426.59;;;16.34;nan
44349;BME280;30068;50.986;4.564;2023-03-03T00:04:52;102419.38;;;16.23;nan
44349;BME280;30068;50.986;4.564;2023-03-03T00:07:17;102428.09;;;16.15;nan
44349;BME280;30068;50.986;4.564;2023-03-03T00:09:47;102427.31;;;16.25;nan
44349;BME280;30068;50.986;4.564;2023-03-03T00:12:33;102431.50;;;16.06;nan
44349;BME280;30068;50.986;4.564;2023-03-03T00:14:57;102427.59;;;15.99;nan
44349;BME280;30068;50.986;4.564;2023-03-03T00:17:24;102439.59;;;16.06;nan
44349;BME280;30068;50.986;4.564;2023-03-03T00:19:49;102441.53;;;16.04;nan
44349;BME280;30068;50.986;4.564;2023-03-03T00:22:20;102447.19;;;16.01;nan
44349;BME280;30068;50.986;4.564;2023-03-03T00:24:47;102438.13;;;16.02;nan
44349;BME280;30068;50.986;4.564;2023-03-03T00:27:34;102435.19;;;15.94;nan
44349;BME280;30068;50.986;4.564;2023-03-03T00:30:00;102425.38;;;15.93;nan
44349;BME280;30068;50.986;4.564;2023-03-03T00:34:52;102434.69;;;16.00;nan
44349;BME280;30068;50.986;4.564;2023-03-03T00:37:28;102436.66;;;15.87;nan
44349;BME280;30068;50.986;4.564;2023-03-03T00:39:57;102434.06;;;15.86;nan
44349;BME280;30068;50.986;4.564;2023-03-03T00:42:23;102426.25;;;15.83;nan
44349;BME280;30068;50.986;4.564;2023-03-03T00:44:55;102426.00;;;15.86;nan
44349;BME280;30068;50.986;4.564;2023-03-03T00:47:30;102430.78;;;15.82;nan
44349;BME280;30068;50.986;4.564;2023-03-03T00:52:34;102430.28;;;15.88;nan
44349;BME280;30068;50.986;4.564;2023-03-03T00:55:00;102431.88;;;15.79;nan
44349;BME280;30068;50.986;4.564;2023-03-03T00:57:26;102437.25;;;15.79;nan
44349;BME280;30068;50.986;4.564;2023-03-03T00:59:51;102428.44;;;15.77;nan
44349;BME280;30068;50.986;4.564;2023-03-03T01:02:16;102432.47;;;15.72;nan
44349;BME280;30068;50.986;4.564;2023-03-03T01:04:42;102435.63;;;15.66;nan
44349;BME280;30068;50.986;4.564;2023-03-03T01:07:08;102435.31;;;15.82;nan
44349;BME280;30068;50.986;4.564;2023-03-03T01:09:33;102437.84;;;15.72;nan
44349;BME280;30068;50.986;4.564;2023-03-03T01:11:58;102440.78;;;15.69;nan
44349;BME280;30068;50.986;4.564;2023-03-03T01:14:24;102441.63;;;15.69;nan
44349;BME280;30068;50.986;4.564;2023-03-03T01:16:49;102431.97;;;15.67;nan
44349;BME280;30068;50.986;4.564;2023-03-03T01:19:14;102434.66;;;15.67;nan
44349;BME280;30068;50.986;4.564;2023-03-03T01:21:39;102441.50;;;15.60;nan
44349;BME280;30068;50.986;4.564;2023-03-03T01:24:05;102439.56;;;15.62;nan
44349;BME280;30068;50.986;4.564;2023-03-03T01:26:30;102446.88;;;15.60;nan
44349;BME280;30068;50.986;4.564;2023-03-03T01:28:55;102438.31;;;15.55;nan
44349;BME280;30068;50.986;4.564;2023-03-03T01:31:20;102450.13;;;15.52;nan
44349;BME280;30068;50.986;4.564;2023-03-03T01:33:46;102445.53;;;15.54;nan
44349;BME280;30068;50.986;4.564;2023-03-03T01:36:11;102448.59;;;15.61;nan
44349;BME280;30068;50.986;4.564;2023-03-03T01:38:37;102455.44;;;15.54;nan
44349;BME280;30068;50.986;4.564;2023-03-03T01:41:02;102449.97;;;15.42;nan
44349;BME280;30068;50.986;4.564;2023-03-03T01:43:28;102454.47;;;15.55;nan
44349;BME280;30068;50.986;4.564;2023-03-03T01:48:24;102455.25;;;15.44;nan
44349;BME280;30068;50.986;4.564;2023-03-03T01:53:43;102455.25;;;15.44;nan
44349;BME280;30068;50.986;4.564;2023-03-03T01:56:10;102438.72;;;15.37;nan
44349;BME280;30068;50.986;4.564;2023-03-03T02:01:25;102443.41;;;15.47;nan
44349;BME280;30068;50.986;4.564;2023-03-03T02:03:51;102441.88;;;15.55;nan
44349;BME280;30068;50.986;4.564;2023-03-03T02:06:18;102439.00;;;15.46;nan
44349;BME280;30068;50.986;4.564;2023-03-03T02:08:52;102441.78;;;15.33;nan
44349;BME280;30068;50.986;4.564;2023-03-03T02:11:20;102434.31;;;15.36;nan
44349;BME280;30068;50.986;4.564;2023-03-03T02:13:46;102430.75;;;15.36;nan
44349;BME280;30068;50.986;4.564;2023-03-03T02:16:11;102429.56;;;15.40;nan
44349;BME280;30068;50.986;4.564;2023-03-03T02:18:36;102423.22;;;15.41;nan
44349;BME280;30068;50.986;4.564;2023-03-03T02:21:11;102425.84;;;15.54;nan
44349;BME280;30068;50.986;4.564;2023-03-03T02:23:44;102430.66;;;15.37;nan
44349;BME280;30068;50.986;4.564;2023-03-03T02:26:16;102433.94;;;15.30;nan
44349;BME280;30068;50.986;4.564;2023-03-03T02:28:42;102428.72;;;15.39;nan
44349;BME280;30068;50.986;4.564;2023-03-03T02:31:09;102435.91;;;15.28;nan
44349;BME280;30068;50.986;4.564;2023-03-03T02:33:37;102429.88;;;15.24;nan
44349;BME280;30068;50.986;4.564;2023-03-03T02:36:02;102433.38;;;15.49;nan
44349;BME280;30068;50.986;4.564;2023-03-03T02:40:58;102428.06;;;15.36;nan
44349;BME280;30068;50.986;4.564;2023-03-03T02:43:28;102431.66;;;15.48;nan
44349;BME280;30068;50.986;4.564;2023-03-03T02:45:56;102433.06;;;15.29;nan
44349;BME280;30068;50.986;4.564;2023-03-03T02:48:21;102430.25;;;15.31;nan
44349;BME280;30068;50.986;4.564;2023-03-03T02:50:46;102441.41;;;15.37;nan
44349;BME280;30068;50.986;4.564;2023-03-03T02:53:12;102434.47;;;15.46;nan
44349;BME280;30068;50.986;4.564;2023-03-03T02:55:37;102441.66;;;15.34;nan
44349;BME280;30068;50.986;4.564;2023-03-03T02:58:02;102443.22;;;15.26;nan
44349;BME280;30068;50.986;4.564;2023-03-03T03:00:27;102440.16;;;15.30;nan
44349;BME280;30068;50.986;4.564;2023-03-03T03:02:53;102437.59;;;15.29;nan
44349;BME280;30068;50.986;4.564;2023-03-03T03:05:18;102439.94;;;15.33;nan
44349;BME280;30068;50.986;4.564;2023-03-03T03:07:43;102437.81;;;15.15;nan
44349;BME280;30068;50.986;4.564;2023-03-03T03:10:08;102437.06;;;15.13;nan
44349;BME280;30068;50.986;4.564;2023-03-03T03:12:34;102431.09;;;15.20;nan
44349;BME280;30068;50.986;4.564;2023-03-03T03:14:59;102437.19;;;15.22;nan
44349;BME280;30068;50.986;4.564;2023-03-03T03:17:24;102441.13;;;15.29;nan
44349;BME280;30068;50.986;4.564;2023-03-03T03:19:50;102439.16;;;15.20;nan
44349;BME280;30068;50.986;4.564;2023-03-03T03:22:15;102433.25;;;15.15;nan
44349;BME280;30068;50.986;4.564;2023-03-03T03:24:40;102434.00;;;15.17;nan
44349;BME280;30068;50.986;4.564;2023-03-03T03:27:05;102439.38;;;15.17;nan
44349;BME280;30068;50.986;4.564;2023-03-03T03:29:30;102444.06;;;15.26;nan
44349;BME280;30068;50.986;4.564;2023-03-03T03:31:56;102450.44;;;15.25;nan
44349;BME280;30068;50.986;4.564;2023-03-03T03:34:21;102444.66;;;15.19;nan
44349;BME280;30068;50.986;4.564;2023-03-03T03:36:46;102456.38;;;15.18;nan
44349;BME280;30068;50.986;4.564;2023-03-03T03:39:11;102456.69;;;15.37;nan
44349;BME280;30068;50.986;4.564;2023-03-03T03:41:37;102455.53;;;15.17;nan
44349;BME280;30068;50.986;4.564;2023-03-03T03:44:02;102455.16;;;15.22;nan
44349;BME280;30068;50.986;4.564;2023-03-03T03:46:27;102447.25;;;15.20;nan
44349;BME280;30068;50.986;4.564;2023-03-03T03:48:52;102455.53;;;15.17;nan
44349;BME280;30068;50.986;4.564;2023-03-03T03:51:18;102455.31;;;15.20;nan
44349;BME280;30068;50.986;4.564;2023-03-03T03:53:43;102461.53;;;15.21;nan
44349;BME280;30068;50.986;4.564;2023-03-03T03:56:08;102470.97;;;15.26;nan
44349;BME280;30068;50.986;4.564;2023-03-03T03:58:33;102472.75;;;15.15;nan
44349;BME280;30068;50.986;4.564;2023-03-03T04:01:05;102475.56;;;15.13;nan
44349;BME280;30068;50.986;4.564;2023-03-03T04:03:30;102473.44;;;15.06;nan
44349;BME280;30068;50.986;4.564;2023-03-03T04:05:55;102478.34;;;15.12;nan
44349;BME280;30068;50.986;4.564;2023-03-03T04:08:21;102478.34;;;15.12;nan
44349;BME280;30068;50.986;4.564;2023-03-03T04:10:46;102477.47;;;15.00;nan
44349;BME280;30068;50.986;4.564;2023-03-03T04:13:11;102476.88;;;15.08;nan
44349;BME280;30068;50.986;4.564;2023-03-03T04:15:36;102477.69;;;15.21;nan
44349;BME280;30068;50.986;4.564;2023-03-03T04:18:02;102481.22;;;14.97;nan
44349;BME280;30068;50.986;4.564;2023-03-03T04:20:27;102476.25;;;15.04;nan
44349;BME280;30068;50.986;4.564;2023-03-03T04:22:52;102478.34;;;15.12;nan
44349;BME280;30068;50.986;4.564;2023-03-03T04:25:18;102474.78;;;15.00;nan
44349;BME280;30068;50.986;4.564;2023-03-03T04:27:43;102473.38;;;14.94;nan
44349;BME280;30068;50.986;4.564;2023-03-03T04:30:09;102476.25;;;15.04;nan
44349;BME280;30068;50.986;4.564;2023-03-03T04:32:34;102478.44;;;14.99;nan
44349;BME280;30068;50.986;4.564;2023-03-03T04:35:00;102486.41;;;15.12;nan
44349;BME280;30068;50.986;4.564;2023-03-03T04:37:25;102481.41;;;15.07;nan
44349;BME280;30068;50.986;4.564;2023-03-03T04:39:51;102486.69;;;14.96;nan
44349;BME280;30068;50.986;4.564;2023-03-03T04:42:16;102486.19;;;14.91;nan
44349;BME280;30068;50.986;4.564;2023-03-03T04:44:41;102491.34;;;14.94;nan
44349;BME280;30068;50.986;4.564;2023-03-03T04:47:06;102493.81;;;14.97;nan
44349;BME280;30068;50.986;4.564;2023-03-03T04:49:31;102483.50;;;14.91;nan
44349;BME280;30068;50.986;4.564;2023-03-03T04:51:57;102492.66;;;14.88;nan
44349;BME280;30068;50.986;4.564;2023-03-03T04:54:22;102489.34;;;14.85;nan
44349;BME280;30068;50.986;4.564;2023-03-03T04:56:47;102495.69;;;14.84;nan
44349;BME280;30068;50.986;4.564;2023-03-03T04:59:13;102496.34;;;14.87;nan
44349;BME280;30068;50.986;4.564;2023-03-03T05:01:39;102492.03;;;14.85;nan
44349;BME280;30068;50.986;4.564;2023-03-03T05:04:04;102496.72;;;14.94;nan
44349;BME280;30068;50.986;4.564;2023-03-03T05:06:29;102494.13;;;15.16;nan
44349;BME280;30068;50.986;4.564;2023-03-03T05:08:54;102503.06;;;15.40;nan
44349;BME280;30068;50.986;4.564;2023-03-03T05:11:20;102510.72;;;15.34;nan
44349;BME280;30068;50.986;4.564;2023-03-03T05:13:45;102506.09;;;15.60;nan
44349;BME280;30068;50.986;4.564;2023-03-03T05:16:10;102510.28;;;15.75;nan
44349;BME280;30068;50.986;4.564;2023-03-03T05:18:36;102508.38;;;15.99;nan
44349;BME280;30068;50.986;4.564;2023-03-03T05:21:01;102510.88;;;15.67;nan
44349;BME280;30068;50.986;4.564;2023-03-03T05:23:26;102514.28;;;15.69;nan
44349;BME280;30068;50.986;4.564;2023-03-03T05:25:51;102511.66;;;15.92;nan
44349;BME280;30068;50.986;4.564;2023-03-03T05:28:17;102516.94;;;16.04;nan
44349;BME280;30068;50.986;4.564;2023-03-03T05:30:42;102519.06;;;15.77;nan
44349;BME280;30068;50.986;4.564;2023-03-03T05:33:09;102523.66;;;15.88;nan
44349;BME280;30068;50.986;4.564;2023-03-03T05:35:36;102521.72;;;16.01;nan
44349;BME280;30068;50.986;4.564;2023-03-03T05:38:02;102521.00;;;16.21;nan
44349;BME280;30068;50.986;4.564;2023-03-03T05:40:27;102512.78;;;16.11;nan
44349;BME280;30068;50.986;4.564;2023-03-03T05:42:52;102511.44;;;15.95;nan
44349;BME280;30068;50.986;4.564;2023-03-03T05:45:17;102512.28;;;15.95;nan
44349;BME280;30068;50.986;4.564;2023-03-03T05:47:48;102523.31;;;16.26;nan
44349;BME280;30068;50.986;4.564;2023-03-03T05:50:13;102526.75;;;16.28;nan
44349;BME280;30068;50.986;4.564;2023-03-03T05:52:39;102521.13;;;16.19;nan
44349;BME280;30068;50.986;4.564;2023-03-03T05:55:04;102524.78;;;16.18;nan
44349;BME280;30068;50.986;4.564;2023-03-03T05:57:29;102526.47;;;15.97;nan
44349;BME280;30068;50.986;4.564;2023-03-03T05:59:55;102526.50;;;16.19;nan
44349;BME280;30068;50.986;4.564;2023-03-03T06:02:20;102522.34;;;16.27;nan
44349;BME280;30068;50.986;4.564;2023-03-03T06:04:46;102521.13;;;16.19;nan
44349;BME280;30068;50.986;4.564;2023-03-03T06:07:11;102529.69;;;16.13;nan
44349;BME280;30068;50.986;4.564;2023-03-03T06:09:36;102530.91;;;16.20;nan
44349;BME280;30068;50.986;4.564;2023-03-03T06:12:01;102531.41;;;16.26;nan
44349;BME280;30068;50.986;4.564;2023-03-03T06:14:27;102533.75;;;16.30;nan
44349;BME280;30068;50.986;4.564;2023-03-03T06:16:52;102536.28;;;16.32;nan
44349;BME280;30068;50.986;4.564;2023-03-03T06:19:17;102537.53;;;16.16;nan
44349;BME280;30068;50.986;4.564;2023-03-03T06:21:43;102544.88;;;16.26;nan
44349;BME280;30068;50.986;4.564;2023-03-03T06:24:08;102549.66;;;16.22;nan
44349;BME280;30068;50.986;4.564;2023-03-03T06:26:33;102548.03;;;16.19;nan
44349;BME280;30068;50.986;4.564;2023-03-03T06:28:58;102559.69;;;16.20;nan
44349;BME280;30068;50.986;4.564;2023-03-03T06:31:24;102547.56;;;16.14;nan
44349;BME280;30068;50.986;4.564;2023-03-03T06:33:49;102559.72;;;16.42;nan
44349;BME280;30068;50.986;4.564;2023-03-03T06:36:15;102556.63;;;16.47;nan
44349;BME280;30068;50.986;4.564;2023-03-03T06:38:40;102562.16;;;16.34;nan
44349;BME280;30068;50.986;4.564;2023-03-03T06:41:06;102564.22;;;16.42;nan
44349;BME280;30068;50.986;4.564;2023-03-03T06:43:32;102567.16;;;16.28;nan
44349;BME280;30068;50.986;4.564;2023-03-03T06:45:58;102564.47;;;16.28;nan
44349;BME280;30068;50.986;4.564;2023-03-03T06:48:23;102574.50;;;16.26;nan
44349;BME280;30068;50.986;4.564;2023-03-03T06:50:48;102577.22;;;16.48;nan
44349;BME280;30068;50.986;4.564;2023-03-03T06:53:16;102582.00;;;16.55;nan
44349;BME280;30068;50.986;4.564;2023-03-03T06:55:42;102574.53;;;16.48;nan
44349;BME280;30068;50.986;4.564;2023-03-03T06:58:12;102579.66;;;16.29;nan
44349;BME280;30068;50.986;4.564;2023-03-03T07:00:39;102587.25;;;16.46;nan
44349;BME280;30068;50.986;4.564;2023-03-03T07:05:36;102592.97;;;16.08;nan
44349;BME280;30068;50.986;4.564;2023-03-03T07:08:02;102595.66;;;16.19;nan
44349;BME280;30068;50.986;4.564;2023-03-03T07:10:30;102598.44;;;15.95;nan
44349;BME280;30068;50.986;4.564;2023-03-03T07:12:56;102606.63;;;15.94;nan
44349;BME280;30068;50.986;4.564;2023-03-03T07:15:23;102616.50;;;15.82;nan
44349;BME280;30068;50.986;4.564;2023-03-03T07:17:54;102620.28;;;15.79;nan
44349;BME280;30068;50.986;4.564;2023-03-03T07:20:21;102620.69;;;15.97;nan
44349;BME280;30068;50.986;4.564;2023-03-03T07:22:46;102619.72;;;15.63;nan
44349;BME280;30068;50.986;4.564;2023-03-03T07:25:25;102628.53;;;15.65;nan
44349;BME280;30068;50.986;4.564;2023-03-03T07:27:52;102629.88;;;15.95;nan
44349;BME280;30068;50.986;4.564;2023-03-03T07:30:22;102634.88;;;15.64;nan
44349;BME280;30068;50.986;4.564;2023-03-03T07:32:48;102639.91;;;15.45;nan
44349;BME280;30068;50.986;4.564;2023-03-03T07:37:49;102656.13;;;15.43;nan
44349;BME280;30068;50.986;4.564;2023-03-03T07:40:26;102648.88;;;15.33;nan
44349;BME280;30068;50.986;4.564;2023-03-03T07:42:55;102652.47;;;15.45;nan
44349;BME280;30068;50.986;4.564;2023-03-03T07:47:48;102658.31;;;15.38;nan
44349;BME280;30068;50.986;4.564;2023-03-03T07:50:15;102648.91;;;15.57;nan
44349;BME280;30068;50.986;4.564;2023-03-03T07:52:43;102657.56;;;15.36;nan
44349;BME280;30068;50.986;4.564;2023-03-03T07:55:25;102654.34;;;15.31;nan
44349;BME280;30068;50.986;4.564;2023-03-03T07:57:51;102649.44;;;15.62;nan
44349;BME280;30068;50.986;4.564;2023-03-03T08:08:00;102666.19;;;15.29;nan
44349;BME280;30068;50.986;4.564;2023-03-03T08:13:08;102673.84;;;15.22;nan
44349;BME280;30068;50.986;4.564;2023-03-03T08:15:39;102674.09;;;15.19;nan
44349;BME280;30068;50.986;4.564;2023-03-03T08:18:11;102673.19;;;15.31;nan
44349;BME280;30068;50.986;4.564;2023-03-03T08:20:45;102663.75;;;15.26;nan
44349;BME280;30068;50.986;4.564;2023-03-03T08:23:11;102669.75;;;15.29;nan
44349;BME280;30068;50.986;4.564;2023-03-03T08:25:37;102670.97;;;15.13;nan
44349;BME280;30068;50.986;4.564;2023-03-03T08:28:02;102670.22;;;15.11;nan
44349;BME280;30068;50.986;4.564;2023-03-03T08:30:27;102673.00;;;15.09;nan
44349;BME280;30068;50.986;4.564;2023-03-03T08:32:53;102673.59;;;15.38;nan
44349;BME280;30068;50.986;4.564;2023-03-03T08:35:18;102681.66;;;11.86;nan
44349;BME280;30068;50.986;4.564;2023-03-03T08:37:43;102679.69;;;12.19;nan
44349;BME280;30068;50.986;4.564;2023-03-03T08:40:08;102684.91;;;13.50;nan
44349;BME280;30068;50.986;4.564;2023-03-03T08:42:34;102683.16;;;14.42;nan
44349;BME280;30068;50.986;4.564;2023-03-03T08:44:59;102687.25;;;14.73;nan
44349;BME280;30068;50.986;4.564;2023-03-03T08:47:24;102687.59;;;14.94;nan
44349;BME280;30068;50.986;4.564;2023-03-03T08:49:49;102687.63;;;15.18;nan
44349;BME280;30068;50.986;4.564;2023-03-03T08:52:15;102693.94;;;15.29;nan
44349;BME280;30068;50.986;4.564;2023-03-03T08:54:40;102689.31;;;15.31;nan
44349;BME280;30068;50.986;4.564;2023-03-03T08:57:05;102696.84;;;15.39;nan
44349;BME280;30068;50.986;4.564;2023-03-03T08:59:30;102698.00;;;15.60;nan
44349;BME280;30068;50.986;4.564;2023-03-03T09:02:01;102701.03;;;15.56;nan
44349;BME280;30068;50.986;4.564;2023-03-03T09:04:26;102707.34;;;15.67;nan
44349;BME280;30068;50.986;4.564;2023-03-03T09:06:52;102703.84;;;15.78;nan
44349;BME280;30068;50.986;4.564;2023-03-03T09:09:17;102705.81;;;15.76;nan
44349;BME280;30068;50.986;4.564;2023-03-03T09:11:42;102709.69;;;15.72;nan
44349;BME280;30068;50.986;4.564;2023-03-03T09:14:12;102718.66;;;15.84;nan
44349;BME280;30068;50.986;4.564;2023-03-03T09:16:38;102721.81;;;15.77;nan
44349;BME280;30068;50.986;4.564;2023-03-03T09:21:49;102724.03;;;15.84;nan
44349;BME280;30068;50.986;4.564;2023-03-03T09:24:21;102719.91;;;15.91;nan
44349;BME280;30068;50.986;4.564;2023-03-03T09:26:48;102720.03;;;16.13;nan
44349;BME280;30068;50.986;4.564;2023-03-03T09:31:42;102721.19;;;16.22;nan
44349;BME280;30068;50.986;4.564;2023-03-03T09:34:17;102724.63;;;16.24;nan
44349;BME280;30068;50.986;4.564;2023-03-03T09:36:44;102728.94;;;13.46;nan
44349;BME280;30068;50.986;4.564;2023-03-03T09:39:19;102724.13;;;14.19;nan
44349;BME280;30068;50.986;4.564;2023-03-03T09:49:33;102729.28;;;15.74;nan
44349;BME280;30068;50.986;4.564;2023-03-03T09:54:58;102731.97;;;15.74;nan
44349;BME280;30068;50.986;4.564;2023-03-03T10:08:01;102733.59;;;16.11;nan
44349;BME280;30068;50.986;4.564;2023-03-03T10:23:24;102742.53;;;16.36;nan
44349;BME280;30068;50.986;4.564;2023-03-03T10:33:48;102742.16;;;16.05;nan
44349;BME280;30068;50.986;4.564;2023-03-03T10:39:02;102735.44;;;16.46;nan
44349;BME280;30068;50.986;4.564;2023-03-03T10:50:12;102735.19;;;16.38;nan
44349;BME280;30068;50.986;4.564;2023-03-03T10:52:20;102740.16;;;16.55;nan
44349;BME280;30068;50.986;4.564;2023-03-03T10:57:39;102736.19;;;16.37;nan
44349;BME280;30068;50.986;4.564;2023-03-03T11:03:04;102735.06;;;16.74;nan
44349;BME280;30068;50.986;4.564;2023-03-03T11:05:42;102741.06;;;16.67;nan
44349;BME280;30068;50.986;4.564;2023-03-03T11:15:43;102741.22;;;16.41;nan
44349;BME280;30068;50.986;4.564;2023-03-03T11:18:57;102741.38;;;16.51;nan
44349;BME280;30068;50.986;4.564;2023-03-03T11:21:00;102736.03;;;16.73;nan
44349;BME280;30068;50.986;4.564;2023-03-03T11:23:41;102735.34;;;16.82;nan
44349;BME280;30068;50.986;4.564;2023-03-03T11:38:47;102727.63;;;16.89;nan
44349;BME280;30068;50.986;4.564;2023-03-03T11:44:08;102730.75;;;16.61;nan
44349;BME280;30068;50.986;4.564;2023-03-03T11:46:45;102728.13;;;16.59;nan
44349;BME280;30068;50.986;4.564;2023-03-03T11:56:42;102718.66;;;16.99;nan
44349;BME280;30068;50.986;4.564;2023-03-03T12:04:12;102712.53;;;16.75;nan
44349;BME280;30068;50.986;4.564;2023-03-03T12:12:01;102705.34;;;16.52;nan
44349;BME280;30068;50.986;4.564;2023-03-03T12:16:58;102702.16;;;16.47;nan
44349;BME280;30068;50.986;4.564;2023-03-03T12:24:22;102699.53;;;16.80;nan
44349;BME280;30068;50.986;4.564;2023-03-03T12:27:27;102694.03;;;16.71;nan
44349;BME280;30068;50.986;4.564;2023-03-03T12:35:10;102692.81;;;17.08;nan
44349;BME280;30068;50.986;4.564;2023-03-03T12:40:16;102691.25;;;17.06;nan
44349;BME280;30068;50.986;4.564;2023-03-03T12:48:37;102681.28;;;17.17;nan
44349;BME280;30068;50.986;4.564;2023-03-03T13:06:42;102678.72;;;17.16;nan
44349;BME280;30068;50.986;4.564;2023-03-03T13:14:14;102670.88;;;17.02;nan
44349;BME280;30068;50.986;4.564;2023-03-03T13:16:42;102667.81;;;17.17;nan
44349;BME280;30068;50.986;4.564;2023-03-03T13:26:47;102660.94;;;17.24;nan
44349;BME280;30068;50.986;4.564;2023-03-03T13:29:18;102657.44;;;17.33;nan
44349;BME280;30068;50.986;4.564;2023-03-03T13:31:46;102659.78;;;17.27;nan
44349;BME280;30068;50.986;4.564;2023-03-03T13:34:24;102654.41;;;17.38;nan
44349;BME280;30068;50.986;4.564;2023-03-03T13:36:55;102661.00;;;17.34;nan
44349;BME280;30068;50.986;4.564;2023-03-03T13:39:23;102656.47;;;17.34;nan
44349;BME280;30068;50.986;4.564;2023-03-03T13:44:42;102656.34;;;17.36;nan
44349;BME280;30068;50.986;4.564;2023-03-03T13:49:46;102653.41;;;17.39;nan
44349;BME280;30068;50.986;4.564;2023-03-03T13:52:19;102650.09;;;17.47;nan
44349;BME280;30068;50.986;4.564;2023-03-03T13:55:07;102647.00;;;17.51;nan
44349;BME280;30068;50.986;4.564;2023-03-03T13:57:57;102639.44;;;17.34;nan
44349;BME280;30068;50.986;4.564;2023-03-03T14:03:02;102635.50;;;17.38;nan
44349;BME280;30068;50.986;4.564;2023-03-03T14:10:31;102631.97;;;14.18;nan
44349;BME280;30068;50.986;4.564;2023-03-03T14:13:08;102643.81;;;14.92;nan
44349;BME280;30068;50.986;4.564;2023-03-03T14:15:39;102637.56;;;15.88;nan
44349;BME280;30068;50.986;4.564;2023-03-03T14:18:23;102631.06;;;16.26;nan
44349;BME280;30068;50.986;4.564;2023-03-03T14:20:51;102633.56;;;16.51;nan
44349;BME280;30068;50.986;4.564;2023-03-03T14:28:16;102628.91;;;16.53;nan
44349;BME280;30068;50.986;4.564;2023-03-03T14:30:44;102632.63;;;16.74;nan
44349;BME280;30068;50.986;4.564;2023-03-03T14:38:13;102631.16;;;16.70;nan
44349;BME280;30068;50.986;4.564;2023-03-03T14:40:39;102623.16;;;16.57;nan
44349;BME280;30068;50.986;4.564;2023-03-03T14:45:51;102614.00;;;16.82;nan
44349;BME280;30068;50.986;4.564;2023-03-03T14:50:47;102616.19;;;16.66;nan
44349;BME280;30068;50.986;4.564;2023-03-03T14:53:15;102620.38;;;16.81;nan
44349;BME280;30068;50.986;4.564;2023-03-03T14:55:48;102617.19;;;16.76;nan
44349;BME280;30068;50.986;4.564;2023-03-03T14:58:24;102614.47;;;16.65;nan
44349;BME280;30068;50.986;4.564;2023-03-03T15:00:50;102616.34;;;16.76;nan
44349;BME280;30068;50.986;4.564;2023-03-03T15:03:22;102621.81;;;17.08;nan
44349;BME280;30068;50.986;4.564;2023-03-03T15:05:51;102619.25;;;17.17;nan
44349;BME280;30068;50.986;4.564;2023-03-03T15:08:22;102615.53;;;17.29;nan
44349;BME280;30068;50.986;4.564;2023-03-03T15:10:48;102609.91;;;17.32;nan
44349;BME280;30068;50.986;4.564;2023-03-03T15:15:52;102608.13;;;17.43;nan
44349;BME280;30068;50.986;4.564;2023-03-03T15:18:25;102604.91;;;17.17;nan
44349;BME280;30068;50.986;4.564;2023-03-03T15:21:03;102612.09;;;17.27;nan
44349;BME280;30068;50.986;4.564;2023-03-03T15:26:09;102602.94;;;17.19;nan
44349;BME280;30068;50.986;4.564;2023-03-03T15:28:57;102596.53;;;17.31;nan
44349;BME280;30068;50.986;4.564;2023-03-03T15:42:03;102590.78;;;17.13;nan
44349;BME280;30068;50.986;4.564;2023-03-03T15:55:30;102598.75;;;17.15;nan
44349;BME280;30068;50.986;4.564;2023-03-03T16:00:04;102586.53;;;16.99;nan
44349;BME280;30068;50.986;4.564;2023-03-03T16:07:52;102585.56;;;16.67;nan
44349;BME280;30068;50.986;4.564;2023-03-03T16:12:53;102583.34;;;16.72;nan
44349;BME280;30068;50.986;4.564;2023-03-03T16:15:22;102589.50;;;16.63;nan
44349;BME280;30068;50.986;4.564;2023-03-03T16:20:22;102588.53;;;16.75;nan
44349;BME280;30068;50.986;4.564;2023-03-03T16:30:33;102594.38;;;16.80;nan
44349;BME280;30068;50.986;4.564;2023-03-03T16:35:30;102599.25;;;16.31;nan
44349;BME280;30068;50.986;4.564;2023-03-03T16:38:01;102603.78;;;16.30;nan
44349;BME280;30068;50.986;4.564;2023-03-03T16:40:32;102594.47;;;16.23;nan
44349;BME280;30068;50.986;4.564;2023-03-03T16:45:44;102593.94;;;16.07;nan
44349;BME280;30068;50.986;4.564;2023-03-03T16:48:15;102599.44;;;16.05;nan
44349;BME280;30068;50.986;4.564;2023-03-03T16:56:23;102605.78;;;16.04;nan
44349;BME280;30068;50.986;4.564;2023-03-03T17:04:14;102607.00;;;16.00;nan
44349;BME280;30068;50.986;4.564;2023-03-03T17:06:51;102610.19;;;15.94;nan
44349;BME280;30068;50.986;4.564;2023-03-03T17:16:59;102625.69;;;15.19;nan
44349;BME280;30068;50.986;4.564;2023-03-03T17:22:21;102637.75;;;15.37;nan
44349;BME280;30068;50.986;4.564;2023-03-03T17:27:59;102642.53;;;15.34;nan
44349;BME280;30068;50.986;4.564;2023-03-03T17:30:05;102649.69;;;15.46;nan
44349;BME280;30068;50.986;4.564;2023-03-03T17:32:42;102647.56;;;15.38;nan
44349;BME280;30068;50.986;4.564;2023-03-03T17:45:28;102651.41;;;15.47;nan
44349;BME280;30068;50.986;4.564;2023-03-03T17:58:16;102666.69;;;15.47;nan
44349;BME280;30068;50.986;4.564;2023-03-03T18:06:08;102665.94;;;15.45;nan
44349;BME280;30068;50.986;4.564;2023-03-03T18:08:44;102667.66;;;15.46;nan
44349;BME280;30068;50.986;4.564;2023-03-03T18:26:27;102680.16;;;15.47;nan
44349;BME280;30068;50.986;4.564;2023-03-03T18:28:49;102677.88;;;15.53;nan
44349;BME280;30068;50.986;4.564;2023-03-03T18:31:24;102684.56;;;15.48;nan
44349;BME280;30068;50.986;4.564;2023-03-03T18:36:58;102676.19;;;15.39;nan
44349;BME280;30068;50.986;4.564;2023-03-03T18:39:42;102682.00;;;15.33;nan
44349;BME280;30068;50.986;4.564;2023-03-03T18:44:44;102690.59;;;15.38;nan
44349;BME280;30068;50.986;4.564;2023-03-03T18:47:09;102688.13;;;15.35;nan
44349;BME280;30068;50.986;4.564;2023-03-03T18:52:26;102689.63;;;15.39;nan
44349;BME280;30068;50.986;4.564;2023-03-03T18:57:26;102688.97;;;15.36;nan
44349;BME280;30068;50.986;4.564;2023-03-03T19:02:36;102674.81;;;16.05;nan